Terminal Aerodrome Forecast
Issued by NWS

Home | Current Version | Previous Version | Text Only | Print | Product List | Glossary On
Versions: 1 2 3 4 5 6 7 8 9 10 11 12 13 14 15 16
000
FTAK31 PAJN 200600 AAA
TAFAGY
TAF AMD
PAGY 200601Z 2006/2106 21015G25KT P6SM -SHRA SCT040 BKN060 OVC080
     FM201200 21013G18KT P6SM -SHRA SCT015 OVC030
     FM201600 04006KT P6SM -SHRA SCT015 OVC025
     FM202200 21011KT P6SM -SHRA SCT020 OVC035
     FM210300 21011G18KT P6SM -SHRA SCT025 OVC050
      AMD LTD TO CLD VIS AND WIND=

USA.gov is the U.S. government's official web portal to all federal, state and local government web resources and services.